Ufimets — UFNC — position and weather

sailwx.info

Track history (hours):
 
Tides and Currents Weather Stations Pressure Air Temp Water Temp Dewpoint Dewpoint Depression Visibility Wind Speed Wind Dir Waves Ship Positions

Ufimets

Last reported at 2016-May-21 02:30 UTC. Time now 2016-May-28 00:01 UTC.
Position N 59°49' E 030°36'.

Length 82 m; draft 1.8 m.

Type: Ship. MMSI: 27343260.

Date/timePositionNaut miles runAvg speedWind from/ knotsBaromVisibWave heightAir tempDewpointWater temp
2016-May-21 02:30N 59°49' E 030°36'0 0.0
2016-May-21 01:33N 59°49' E 030°36'3 3.3
2016-May-21 00:33N 59°51' E 030°31'6 5.4
2016-May-20 23:32N 59°55' E 030°24'4 3.8
2016-May-20 22:34N 59°56' E 030°17'0 0.1
2016-May-20 21:33N 59°56' E 030°17'0 0.0
2016-May-20 20:33N 59°56' E 030°17'0 0.0
2016-May-20 19:33N 59°56' E 030°17'0 0.0
2016-May-20 18:33N 59°56' E 030°17'0 0.0
2016-May-20 17:33N 59°56' E 030°17'0 0.0
2016-May-20 16:33N 59°56' E 030°17'0 0.0
2016-May-20 15:33N 59°56' E 030°17'0 0.0
2016-May-20 14:33N 59°56' E 030°17'0 0.0
2016-May-20 13:33N 59°56' E 030°17'0 0.0
2016-May-20 12:33N 59°56' E 030°17'0 0.0
2016-May-20 11:33N 59°56' E 030°17'0 0.0
2016-May-20 10:33N 59°56' E 030°17'0 0.0
2016-May-20 09:32N 59°56' E 030°17'0 0.0
2016-May-20 08:32N 59°56' E 030°17'0 0.0
2016-May-20 07:32N 59°56' E 030°17'2 1.9
2016-May-20 06:33N 59°55' E 030°14'7 6.9
2016-May-20 05:33N 59°55' E 030°00'8 7.8
2016-May-20 04:33N 59°59' E 029°46'18 5.9
2016-May-20 01:26N 60°02' E 029°10'9 7.6
2016-May-20 00:18N 60°06' E 028°55'6 8.6
2016-May-19 23:33N 60°11' E 028°47'8 7.3
2016-May-19 22:30N 60°15' E 028°34'8 8.3
2016-May-19 21:33N 60°20' E 028°21'  
2016-May-17 04:05N 59°60' E 029°40'4 7.1
2016-May-17 03:33N 59°58' E 029°47'3 3.2
2016-May-17 02:33N 59°57' E 029°52'7 6.9
2016-May-17 01:33N 59°54' E 030°05'6 5.8
2016-May-17 00:33N 59°55' E 030°16'4 3.9
2016-May-16 23:33N 59°55' E 030°24'0 0.2
2016-May-16 22:33N 59°55' E 030°24'0 0.0
2016-May-16 21:33N 59°55' E 030°24'0 0.0
2016-May-16 20:33N 59°55' E 030°24'0 0.0
2016-May-16 19:33N 59°55' E 030°24'0 0.0
2016-May-16 17:32N 59°55' E 030°24'0 0.0
2016-May-16 16:25N 59°55' E 030°24'0 0.0
2016-May-16 15:33N 59°55' E 030°24'7 6.8
2016-May-16 14:33N 59°50' E 030°32'  
Track history (hours):
 
Tides and Currents Weather Stations Pressure Air Temp Water Temp Dewpoint Dewpoint Depression Visibility Wind Speed Wind Dir Waves Ship Positions

Ufimets

Last reported at 2016-May-21 02:30 UTC. Time now 2016-May-28 00:01 UTC.
Position N 59°49' E 030°36'.

Length 82 m; draft 1.8 m.

Type: Ship. MMSI: 27343260.

Date/timePositionNaut miles runAvg speedWind from/ knotsBaromVisibWave heightAir tempDewpointWater temp
2016-May-21 02:30N 59°49' E 030°36'0 0.0
2016-May-21 01:33N 59°49' E 030°36'3 3.3
2016-May-21 00:33N 59°51' E 030°31'6 5.4
2016-May-20 23:32N 59°55' E 030°24'4 3.8
2016-May-20 22:34N 59°56' E 030°17'0 0.1
2016-May-20 21:33N 59°56' E 030°17'0 0.0
2016-May-20 20:33N 59°56' E 030°17'0 0.0
2016-May-20 19:33N 59°56' E 030°17'0 0.0
2016-May-20 18:33N 59°56' E 030°17'0 0.0
2016-May-20 17:33N 59°56' E 030°17'0 0.0
2016-May-20 16:33N 59°56' E 030°17'0 0.0
2016-May-20 15:33N 59°56' E 030°17'0 0.0
2016-May-20 14:33N 59°56' E 030°17'0 0.0
2016-May-20 13:33N 59°56' E 030°17'0 0.0
2016-May-20 12:33N 59°56' E 030°17'0 0.0
2016-May-20 11:33N 59°56' E 030°17'0 0.0
2016-May-20 10:33N 59°56' E 030°17'0 0.0
2016-May-20 09:32N 59°56' E 030°17'0 0.0
2016-May-20 08:32N 59°56' E 030°17'0 0.0
2016-May-20 07:32N 59°56' E 030°17'2 1.9
2016-May-20 06:33N 59°55' E 030°14'7 6.9
2016-May-20 05:33N 59°55' E 030°00'8 7.8
2016-May-20 04:33N 59°59' E 029°46'18 5.9
2016-May-20 01:26N 60°02' E 029°10'9 7.6
2016-May-20 00:18N 60°06' E 028°55'6 8.6
2016-May-19 23:33N 60°11' E 028°47'8 7.3
2016-May-19 22:30N 60°15' E 028°34'8 8.3
2016-May-19 21:33N 60°20' E 028°21'  
2016-May-17 04:05N 59°60' E 029°40'4 7.1
2016-May-17 03:33N 59°58' E 029°47'3 3.2
2016-May-17 02:33N 59°57' E 029°52'7 6.9
2016-May-17 01:33N 59°54' E 030°05'6 5.8
2016-May-17 00:33N 59°55' E 030°16'4 3.9
2016-May-16 23:33N 59°55' E 030°24'0 0.2
2016-May-16 22:33N 59°55' E 030°24'0 0.0
2016-May-16 21:33N 59°55' E 030°24'0 0.0
2016-May-16 20:33N 59°55' E 030°24'0 0.0
2016-May-16 19:33N 59°55' E 030°24'0 0.0
2016-May-16 17:32N 59°55' E 030°24'0 0.0
2016-May-16 16:25N 59°55' E 030°24'0 0.0
2016-May-16 15:33N 59°55' E 030°24'7 6.8
2016-May-16 14:33N 59°50' E 030°32'  

Dump ship's entire track history